Time;durP1;ratioP1;P1;durP2;ratioP2;P2;SDS_P1;SDS_P2;PMS_P1;PMS_P2;Temp;Humidity;BMP_temperature;BMP_pressure;BME280_temperature;BME280_humidity;BME280_pressure;Samples;Min_cycle;Max_cycle;Signal;HPM_P1;HPM_P2
2024/03/29 00:00:55;;;;;;;4.47;4.00;;;7.90;99.90;;;;;;5043890;28;20219;-88
2024/03/29 00:03:21;;;;;;;3.70;3.40;;;8.00;99.90;;;;;;5016541;28;20190;-89
2024/03/29 00:05:46;;;;;;;4.03;3.73;;;8.00;99.90;;;;;;5018451;28;20180;-88
2024/03/29 00:08:12;;;;;;;3.60;3.30;;;8.00;99.90;;;;;;5032128;28;20216;-88
2024/03/29 00:10:38;;;;;;;4.67;3.83;;;8.00;99.90;;;;;;5027233;28;20184;-89
2024/03/29 00:13:05;;;;;;;4.90;4.20;;;8.00;99.90;;;;;;5036587;28;20175;-89
2024/03/29 00:15:32;;;;;;;3.80;3.50;;;8.00;99.90;;;;;;5066274;28;20187;-89
2024/03/29 00:17:58;;;;;;;4.33;4.03;;;8.00;99.90;;;;;;5062766;28;20175;-88
2024/03/29 00:20:24;;;;;;;8.77;4.07;;;8.00;99.90;;;;;;5062225;28;20175;-88
2024/03/29 00:22:51;;;;;;;3.93;3.53;;;8.00;99.90;;;;;;5047247;28;20266;-88
2024/03/29 00:25:17;;;;;;;4.43;4.13;;;8.00;99.90;;;;;;5063309;28;20179;-89
2024/03/29 00:27:44;;;;;;;4.07;3.50;;;8.00;99.90;;;;;;5057712;28;20206;-89
2024/03/29 00:30:10;;;;;;;4.97;3.43;;;8.00;99.90;;;;;;5044206;28;20207;-88
2024/03/29 00:32:35;;;;;;;5.23;3.77;;;8.00;99.90;;;;;;5044534;28;20171;-88
2024/03/29 00:35:01;;;;;;;4.73;4.23;;;8.00;99.90;;;;;;5046636;28;20163;-88
2024/03/29 00:37:26;;;;;;;6.27;4.40;;;8.00;99.90;;;;;;5045718;28;20194;-88
2024/03/29 00:39:53;;;;;;;4.57;4.10;;;8.00;99.90;;;;;;5022721;28;20723;-87
2024/03/29 00:42:20;;;;;;;3.87;3.53;;;8.00;99.90;;;;;;5036083;28;20171;-88
2024/03/29 00:44:46;;;;;;;8.13;4.30;;;8.00;99.90;;;;;;5036378;28;20211;-88
2024/03/29 00:47:13;;;;;;;4.33;3.93;;;8.00;99.90;;;;;;5036148;28;20214;-87
2024/03/29 00:49:39;;;;;;;4.13;3.77;;;8.00;99.90;;;;;;5035150;28;20195;-89
2024/03/29 00:52:05;;;;;;;4.83;4.53;;;8.00;99.90;;;;;;5039608;28;20172;-88
2024/03/29 00:54:31;;;;;;;4.07;3.73;;;8.00;99.90;;;;;;5038859;28;20247;-87
2024/03/29 00:56:57;;;;;;;6.43;3.67;;;8.10;99.90;;;;;;5038633;28;20221;-87
2024/03/29 00:59:22;;;;;;;3.40;3.10;;;8.10;99.90;;;;;;5040942;28;20230;-87
2024/03/29 01:01:52;;;;;;;4.07;3.77;;;8.20;99.90;;;;;;5031679;28;20259;-88
2024/03/29 01:04:17;;;;;;;6.17;3.40;;;8.10;99.90;;;;;;5066798;28;20184;-88
2024/03/29 01:06:44;;;;;;;5.03;3.50;;;8.20;99.90;;;;;;5054360;28;20188;-88
2024/03/29 01:09:13;;;;;;;3.90;3.50;;;8.20;99.90;;;;;;5056601;28;20195;-88
2024/03/29 01:11:39;;;;;;;3.33;3.07;;;8.20;99.90;;;;;;5052862;28;20227;-88
2024/03/29 01:14:06;;;;;;;3.63;3.37;;;8.20;99.90;;;;;;5033723;28;20207;-88
2024/03/29 01:16:32;;;;;;;3.63;3.43;;;8.30;99.90;;;;;;5053261;28;20654;-88
2024/03/29 01:18:58;;;;;;;3.97;3.63;;;8.30;99.90;;;;;;5055938;28;20208;-88
2024/03/29 01:21:24;;;;;;;6.17;3.30;;;8.30;99.90;;;;;;5055448;28;20187;-87
2024/03/29 01:23:50;;;;;;;4.30;3.87;;;8.40;99.90;;;;;;5052767;28;20180;-88
2024/03/29 01:26:17;;;;;;;4.50;3.40;;;8.40;99.90;;;;;;5020505;28;20187;-88
2024/03/29 01:28:43;;;;;;;6.77;3.87;;;8.50;99.90;;;;;;5018582;28;20219;-87
2024/03/29 01:31:09;;;;;;;3.90;3.60;;;8.50;99.90;;;;;;5051759;28;20168;-88
2024/03/29 01:33:40;;;;;;;3.30;3.10;;;8.50;99.90;;;;;;5033493;28;20176;-87
2024/03/29 01:36:09;;;;;;;4.00;3.63;;;8.60;99.90;;;;;;5049794;28;20172;-87
2024/03/29 01:38:34;;;;;;;4.77;3.30;;;8.60;99.90;;;;;;5043592;28;20188;-87
2024/03/29 01:41:00;;;;;;;3.60;3.30;;;8.60;99.90;;;;;;5016188;28;20188;-87
2024/03/29 01:43:28;;;;;;;3.87;3.27;;;8.70;99.90;;;;;;5047802;28;20243;-88
2024/03/29 01:45:55;;;;;;;3.50;3.20;;;8.70;99.90;;;;;;5049186;28;20180;-87
2024/03/29 01:48:26;;;;;;;3.83;3.50;;;8.70;99.90;;;;;;5048307;28;20212;-88
2024/03/29 01:50:55;;;;;;;3.50;3.30;;;8.80;99.90;;;;;;5047647;28;20777;-88
2024/03/29 01:53:22;;;;;;;3.30;3.10;;;8.90;99.90;;;;;;5048175;28;20182;-88
2024/03/29 01:55:48;;;;;;;3.60;3.30;;;8.90;99.90;;;;;;5025982;28;20176;-88
2024/03/29 01:58:14;;;;;;;4.57;3.00;;;8.90;99.90;;;;;;5034116;28;20243;-87
2024/03/29 02:00:48;;;;;;;3.67;3.10;;;9.00;99.90;;;;;;5033955;28;20228;-88
2024/03/29 02:03:15;;;;;;;5.03;3.23;;;9.00;99.90;;;;;;5043630;28;20182;-88
2024/03/29 02:05:41;;;;;;;5.90;3.13;;;9.10;99.90;;;;;;5063348;28;20175;-87
2024/03/29 02:08:08;;;;;;;4.50;3.17;;;9.10;99.90;;;;;;5052877;28;20211;-87
2024/03/29 02:10:35;;;;;;;5.80;3.10;;;9.10;99.90;;;;;;5045415;28;20171;-88
2024/03/29 02:13:01;;;;;;;3.40;3.10;;;9.10;99.90;;;;;;5039607;28;20220;-88
2024/03/29 02:15:28;;;;;;;3.00;2.80;;;9.00;99.90;;;;;;5038082;28;20282;-88
2024/03/29 02:17:54;;;;;;;8.50;3.20;;;9.10;99.90;;;;;;5036710;28;20184;-88
2024/03/29 02:20:20;;;;;;;3.50;3.23;;;9.00;99.90;;;;;;5042473;28;20736;-87
2024/03/29 02:23:00;;;;;;;4.37;3.40;;;9.00;99.90;;;;;;5043959;28;20190;-87
2024/03/29 02:25:28;;;;;;;3.40;3.10;;;9.00;99.90;;;;;;5044222;28;20748;-87
2024/03/29 02:27:54;;;;;;;3.50;3.07;;;9.10;99.90;;;;;;5058099;28;20268;-87
2024/03/29 02:30:20;;;;;;;5.23;3.20;;;9.10;99.90;;;;;;5046468;28;20192;-88
2024/03/29 02:32:46;;;;;;;6.57;3.17;;;9.10;99.90;;;;;;5041594;28;20183;-87
2024/03/29 02:35:12;;;;;;;3.50;3.10;;;9.10;99.90;;;;;;5039696;28;20275;-87
2024/03/29 02:37:38;;;;;;;4.83;3.20;;;9.20;99.90;;;;;;5023041;28;20204;-87
2024/03/29 02:40:06;;;;;;;4.53;3.20;;;9.20;99.90;;;;;;5037710;28;20231;-87
2024/03/29 02:42:32;;;;;;;3.60;3.30;;;9.20;99.90;;;;;;5023270;28;20236;-87
2024/03/29 02:44:58;;;;;;;3.63;3.20;;;9.20;99.90;;;;;;5052703;28;20219;-87
2024/03/29 02:47:23;;;;;;;3.43;3.13;;;9.20;99.90;;;;;;5019690;28;20211;-87
2024/03/29 02:49:49;;;;;;;3.70;3.40;;;9.20;99.90;;;;;;5021356;28;20200;-87
2024/03/29 02:52:15;;;;;;;3.70;3.33;;;9.20;99.90;;;;;;5021935;28;20195;-87
2024/03/29 02:54:41;;;;;;;7.33;3.70;;;9.20;99.90;;;;;;5020818;28;20180;-88
2024/03/29 02:57:07;;;;;;;3.50;3.20;;;9.30;99.90;;;;;;5025546;28;20175;-87
2024/03/29 02:59:32;;;;;;;3.53;3.30;;;9.30;99.90;;;;;;5051835;28;20766;-86
2024/03/29 03:01:58;;;;;;;3.50;3.20;;;9.30;99.90;;;;;;5036193;28;20190;-88
2024/03/29 03:04:24;;;;;;;3.50;3.30;;;9.30;99.90;;;;;;5035660;28;20180;-87
2024/03/29 03:06:50;;;;;;;5.43;4.00;;;9.30;99.90;;;;;;5035120;28;20194;-87
2024/03/29 03:12:00;;;;;;;3.97;3.67;;;9.20;99.90;;;;;;5037916;28;20221;-87
2024/03/29 03:14:25;;;;;;;3.50;3.30;;;9.20;99.90;;;;;;5052017;28;20195;-87
2024/03/29 03:16:52;;;;;;;5.33;3.20;;;9.30;99.90;;;;;;5035846;28;20175;-87
2024/03/29 03:19:18;;;;;;;4.27;3.57;;;9.30;99.90;;;;;;5051801;28;20222;-87
2024/03/29 03:21:44;;;;;;;3.53;3.10;;;9.30;99.90;;;;;;5028207;28;20204;-87
2024/03/29 03:24:11;;;;;;;3.53;3.20;;;9.30;99.90;;;;;;5031696;28;20259;-87
2024/03/29 03:26:38;;;;;;;3.50;3.20;;;9.30;99.90;;;;;;5016890;28;20200;-87
2024/03/29 03:29:04;;;;;;;3.60;3.30;;;9.30;99.90;;;;;;5017057;28;20213;-87
2024/03/29 03:31:29;;;;;;;4.60;3.70;;;9.30;99.90;;;;;;5015933;28;20194;-87
2024/03/29 03:33:55;;;;;;;3.67;3.37;;;9.30;99.90;;;;;;5032174;28;20686;-87
2024/03/29 03:36:21;;;;;;;3.70;3.50;;;9.30;99.90;;;;;;5035384;28;20178;-87
2024/03/29 03:38:46;;;;;;;3.73;3.40;;;9.20;99.90;;;;;;5053449;28;20266;-87
2024/03/29 03:41:12;;;;;;;3.57;3.37;;;9.20;99.90;;;;;;5053935;28;20182;-87
2024/03/29 03:43:38;;;;;;;3.60;3.40;;;9.20;99.90;;;;;;5036057;28;20685;-87
2024/03/29 03:46:03;;;;;;;4.87;4.47;;;9.20;99.90;;;;;;5034955;28;20183;-87
2024/03/29 03:48:29;;;;;;;5.20;4.77;;;9.20;99.90;;;;;;5051630;28;20207;-86
2024/03/29 03:50:56;;;;;;;3.93;3.73;;;9.20;99.90;;;;;;5037650;28;20180;-87
2024/03/29 03:53:21;;;;;;;3.90;3.70;;;9.10;99.90;;;;;;5051303;28;20171;-86
2024/03/29 03:55:47;;;;;;;3.77;3.57;;;9.10;99.90;;;;;;5050787;28;20247;-86
2024/03/29 03:58:13;;;;;;;3.67;3.30;;;9.10;99.90;;;;;;5055193;28;20184;-86
2024/03/29 04:00:39;;;;;;;3.30;3.10;;;9.10;99.90;;;;;;5054563;28;20190;-87
2024/03/29 04:03:05;;;;;;;4.27;3.30;;;9.00;99.90;;;;;;5055858;28;20217;-86
2024/03/29 04:05:32;;;;;;;4.13;3.30;;;9.00;99.90;;;;;;5055212;28;20561;-87
2024/03/29 04:07:59;;;;;;;3.80;3.60;;;9.00;99.90;;;;;;5054343;28;20227;-87
2024/03/29 04:10:25;;;;;;;3.50;3.23;;;9.00;99.90;;;;;;5055331;28;20164;-87
2024/03/29 04:12:52;;;;;;;5.20;3.57;;;9.00;99.90;;;;;;5024260;28;20707;-86
2024/03/29 04:15:18;;;;;;;3.57;3.33;;;9.00;99.90;;;;;;5034415;28;20192;-86
2024/03/29 04:17:45;;;;;;;3.87;3.57;;;9.00;99.90;;;;;;5033918;28;20182;-87
2024/03/29 04:20:10;;;;;;;5.30;3.70;;;9.10;99.90;;;;;;5034356;28;20199;-87
2024/03/29 04:22:36;;;;;;;3.50;3.30;;;9.00;99.90;;;;;;5034190;28;20180;-87
2024/03/29 04:25:02;;;;;;;3.80;3.20;;;9.00;99.90;;;;;;5034400;28;20626;-86
2024/03/29 04:27:35;;;;;;;5.53;3.40;;;9.00;99.90;;;;;;5034947;28;20195;-92
2024/03/29 04:30:02;;;;;;;4.43;3.60;;;8.90;99.90;;;;;;5034292;28;20226;-87
2024/03/29 04:32:28;;;;;;;3.60;3.30;;;8.90;99.90;;;;;;5033360;28;20213;-86
2024/03/29 04:34:53;;;;;;;5.07;3.10;;;8.80;99.90;;;;;;5034121;28;20175;-86
2024/03/29 04:37:19;;;;;;;6.60;3.63;;;8.80;99.90;;;;;;5033200;28;20183;-87
2024/03/29 04:39:46;;;;;;;7.17;4.13;;;8.70;99.90;;;;;;5032694;28;20195;-86
2024/03/29 04:42:11;;;;;;;4.20;3.77;;;8.80;99.90;;;;;;5034546;28;20175;-86
2024/03/29 04:44:39;;;;;;;4.87;3.73;;;8.60;99.90;;;;;;5034904;28;20187;-86
2024/03/29 04:47:05;;;;;;;3.73;3.43;;;8.60;99.90;;;;;;5015366;28;20276;-86
2024/03/29 04:49:34;;;;;;;3.13;2.93;;;8.50;99.90;;;;;;5013523;28;20737;-86
2024/03/29 04:52:00;;;;;;;3.87;3.57;;;8.50;99.90;;;;;;5015827;28;20194;-86
2024/03/29 04:54:26;;;;;;;3.97;3.60;;;8.40;99.90;;;;;;5049241;28;20641;-86
2024/03/29 04:56:53;;;;;;;4.53;3.83;;;8.30;99.90;;;;;;5013277;28;20176;-86
2024/03/29 04:59:20;;;;;;;4.10;3.80;;;8.20;99.90;;;;;;5013634;28;20223;-86
2024/03/29 05:01:53;;;;;;;4.77;3.80;;;8.20;99.90;;;;;;5018494;28;20199;-85
2024/03/29 05:04:25;;;;;;;6.47;4.10;;;8.10;99.90;;;;;;5032055;28;20208;-86
2024/03/29 05:06:58;;;;;;;4.77;3.73;;;8.10;99.90;;;;;;5013397;28;20195;-86
2024/03/29 05:09:25;;;;;;;5.77;3.67;;;8.00;99.90;;;;;;5013303;28;20223;-86
2024/03/29 05:11:50;;;;;;;3.93;3.60;;;8.00;99.90;;;;;;5046147;28;20176;-87
2024/03/29 05:14:22;;;;;;;4.30;3.90;;;8.00;99.90;;;;;;5025776;28;20257;-85
2024/03/29 05:16:48;;;;;;;5.00;3.47;;;7.90;99.90;;;;;;5034737;28;20209;-86
2024/03/29 05:19:14;;;;;;;6.63;3.90;;;7.90;99.90;;;;;;5035101;28;20257;-86
2024/03/29 05:21:43;;;;;;;4.63;4.23;;;7.80;99.90;;;;;;5034299;28;20187;-86
2024/03/29 05:24:09;;;;;;;4.27;3.87;;;7.80;99.90;;;;;;5028620;28;20183;-86
2024/03/29 05:26:35;;;;;;;5.30;4.00;;;7.80;99.90;;;;;;5016819;28;20188;-86
2024/03/29 05:29:03;;;;;;;4.03;3.83;;;7.80;99.90;;;;;;5024119;28;20714;-86
2024/03/29 05:31:29;;;;;;;4.03;3.67;;;7.80;99.90;;;;;;5017033;28;20195;-86
2024/03/29 05:33:54;;;;;;;4.23;3.90;;;7.80;99.90;;;;;;5013971;28;20199;-87
2024/03/29 05:36:20;;;;;;;4.43;3.90;;;7.80;99.90;;;;;;5048300;28;20244;-87
2024/03/29 05:38:46;;;;;;;6.63;3.50;;;7.80;99.90;;;;;;5016350;28;20199;-87
2024/03/29 05:41:12;;;;;;;5.10;4.20;;;7.70;99.90;;;;;;5014835;28;20665;-87
2024/03/29 05:43:40;;;;;;;4.60;3.77;;;7.80;99.90;;;;;;5016371;28;20238;-87
2024/03/29 05:46:05;;;;;;;4.47;3.90;;;7.80;99.90;;;;;;5025555;28;20255;-87
2024/03/29 05:48:31;;;;;;;4.40;4.07;;;7.70;99.90;;;;;;5022142;28;20250;-86
2024/03/29 05:50:57;;;;;;;4.60;4.17;;;7.70;99.90;;;;;;5017843;28;20171;-87
2024/03/29 05:53:22;;;;;;;4.83;4.30;;;7.80;99.90;;;;;;5014565;28;20176;-87
2024/03/29 05:55:48;;;;;;;5.80;4.17;;;7.80;99.90;;;;;;5035748;28;20339;-88
2024/03/29 05:58:17;;;;;;;3.90;3.67;;;7.80;99.90;;;;;;5034365;28;20183;-87
2024/03/29 06:00:44;;;;;;;5.97;4.40;;;7.80;99.90;;;;;;5017766;28;20186;-88
2024/03/29 06:03:09;;;;;;;4.97;4.07;;;7.80;99.90;;;;;;5048428;28;20184;-87
2024/03/29 06:05:35;;;;;;;7.03;4.20;;;7.80;99.90;;;;;;5016444;28;20187;-88
2024/03/29 06:08:01;;;;;;;7.73;4.17;;;7.70;99.90;;;;;;5026822;28;20555;-87
2024/03/29 06:10:26;;;;;;;7.90;4.30;;;7.70;99.90;;;;;;5036329;28;20278;-87
2024/03/29 06:12:52;;;;;;;4.43;4.03;;;7.70;99.90;;;;;;5018590;28;20187;-87
2024/03/29 06:18:02;;;;;;;6.80;4.40;;;7.70;99.90;;;;;;5038426;28;20194;-88
2024/03/29 06:20:28;;;;;;;4.57;4.00;;;7.80;99.90;;;;;;5036950;28;20640;-88
2024/03/29 06:22:55;;;;;;;4.50;4.20;;;7.80;99.90;;;;;;5021439;28;20180;-89
2024/03/29 06:25:20;;;;;;;4.63;4.17;;;7.80;99.90;;;;;;5038831;28;20180;-87
2024/03/29 06:27:49;;;;;;;4.27;3.80;;;7.90;99.90;;;;;;5053927;28;20254;-88
2024/03/29 06:30:16;;;;;;;5.73;4.20;;;7.90;99.90;;;;;;5059372;28;20196;-87
2024/03/29 06:32:42;;;;;;;4.73;4.23;;;8.00;99.90;;;;;;5053420;28;20222;-88
2024/03/29 06:35:12;;;;;;;7.00;4.10;;;8.00;99.90;;;;;;5050786;28;20179;-91
2024/03/29 06:37:40;;;;;;;4.80;4.20;;;8.00;99.90;;;;;;5051785;28;20658;-89
2024/03/29 06:40:07;;;;;;;5.07;4.50;;;8.00;99.90;;;;;;5052761;28;20223;-88
2024/03/29 06:42:33;;;;;;;5.67;4.43;;;8.00;99.90;;;;;;5054238;28;20181;-86
2024/03/29 06:44:59;;;;;;;5.33;4.40;;;8.10;99.90;;;;;;5050364;28;20562;-87
2024/03/29 06:47:27;;;;;;;4.80;4.30;;;8.20;99.90;;;;;;5049467;28;20717;-86
2024/03/29 06:49:53;;;;;;;5.47;5.00;;;8.20;99.90;;;;;;5049058;28;20553;-87
2024/03/29 06:52:19;;;;;;;6.07;4.23;;;8.20;99.90;;;;;;5049786;28;20268;-85
2024/03/29 06:54:44;;;;;;;5.37;4.40;;;8.30;99.90;;;;;;5049659;28;20176;-86
2024/03/29 06:57:14;;;;;;;4.83;4.43;;;8.40;99.90;;;;;;5049908;28;20268;-89
2024/03/29 06:59:41;;;;;;;4.83;4.43;;;8.40;99.90;;;;;;5017842;28;20188;-89
2024/03/29 07:02:09;;;;;;;6.30;4.20;;;8.50;99.90;;;;;;5017514;28;20182;-87
2024/03/29 07:04:36;;;;;;;8.27;4.10;;;8.60;99.90;;;;;;5018024;28;20168;-87
2024/03/29 07:07:02;;;;;;;4.40;4.00;;;8.70;99.90;;;;;;5030517;28;20201;-88
2024/03/29 07:09:28;;;;;;;4.83;4.00;;;8.70;99.90;;;;;;5036142;28;20200;-87
2024/03/29 07:11:54;;;;;;;4.60;4.20;;;8.80;99.90;;;;;;5035704;28;20172;-87
2024/03/29 07:14:21;;;;;;;4.47;4.17;;;8.80;99.90;;;;;;5033808;28;20198;-87
2024/03/29 07:16:47;;;;;;;4.60;4.20;;;8.90;99.90;;;;;;5017241;28;20172;-87
2024/03/29 07:19:15;;;;;;;4.70;4.23;;;9.00;99.90;;;;;;5048869;28;20203;-87
2024/03/29 07:21:42;;;;;;;4.20;3.90;;;9.20;99.90;;;;;;5016877;28;20255;-88
2024/03/29 07:24:08;;;;;;;6.20;4.10;;;9.30;99.90;;;;;;5048923;28;20180;-86
2024/03/29 07:26:34;;;;;;;5.20;4.17;;;9.40;99.90;;;;;;5015189;28;20275;-87
2024/03/29 07:29:00;;;;;;;3.97;3.60;;;9.60;99.90;;;;;;5046573;28;20579;-87
2024/03/29 07:31:26;;;;;;;4.30;4.03;;;9.70;99.90;;;;;;5015854;28;20184;-87
2024/03/29 07:33:52;;;;;;;4.13;3.80;;;9.90;99.90;;;;;;4999659;28;20176;-87
2024/03/29 07:36:17;;;;;;;4.03;3.60;;;10.10;99.90;;;;;;5015675;28;20668;-87
2024/03/29 07:38:46;;;;;;;3.37;3.17;;;10.30;99.90;;;;;;5017311;28;20196;-87
2024/03/29 07:41:13;;;;;;;3.87;3.57;;;10.40;99.90;;;;;;5016339;28;20654;-87
2024/03/29 07:43:40;;;;;;;3.30;3.10;;;10.60;99.90;;;;;;5019687;28;20592;-86
2024/03/29 07:46:08;;;;;;;3.80;3.20;;;10.70;99.90;;;;;;5051928;28;20230;-87
2024/03/29 07:48:34;;;;;;;3.23;3.03;;;10.90;99.90;;;;;;5053880;28;20257;-87
2024/03/29 07:51:00;;;;;;;8.17;3.10;;;11.00;99.90;;;;;;5042954;28;20172;-87
2024/03/29 07:53:26;;;;;;;3.00;2.80;;;11.00;99.90;;;;;;5052390;28;20178;-87
2024/03/29 07:55:51;;;;;;;3.10;3.00;;;11.10;99.90;;;;;;5042719;28;20627;-88
2024/03/29 07:58:17;;;;;;;3.00;2.80;;;11.10;99.90;;;;;;5029765;28;20254;-86
2024/03/29 08:00:43;;;;;;;3.00;2.80;;;11.10;99.90;;;;;;5016906;28;20172;-87
2024/03/29 08:03:09;;;;;;;3.10;2.80;;;11.20;99.90;;;;;;5016979;28;20184;-87
2024/03/29 08:05:34;;;;;;;3.83;2.90;;;11.20;99.90;;;;;;5016546;28;20639;-87
2024/03/29 08:08:00;;;;;;;2.70;2.60;;;11.30;99.90;;;;;;4998592;28;20234;-87
2024/03/29 08:10:26;;;;;;;2.83;2.73;;;11.40;99.90;;;;;;5015871;28;20196;-90
2024/03/29 08:12:52;;;;;;;2.93;2.73;;;11.50;99.90;;;;;;5014657;28;20258;-86
2024/03/29 08:15:18;;;;;;;3.00;2.80;;;11.50;99.90;;;;;;5016206;28;20191;-90
2024/03/29 08:17:47;;;;;;;3.33;3.07;;;11.70;99.90;;;;;;5045299;23;20231;-74
2024/03/29 08:20:13;;;;;;;3.10;2.90;;;11.70;99.90;;;;;;5032272;28;20176;-73
2024/03/29 08:22:38;;;;;;;2.80;2.70;;;11.80;99.90;;;;;;5033252;28;20168;-74
2024/03/29 08:25:04;;;;;;;2.40;2.30;;;11.90;99.90;;;;;;5031624;28;20179;-73
2024/03/29 08:27:30;;;;;;;2.90;2.70;;;12.00;99.90;;;;;;5032806;28;20211;-73
2024/03/29 08:29:56;;;;;;;3.13;2.60;;;12.20;99.90;;;;;;5033439;28;20163;-74
2024/03/29 08:32:21;;;;;;;2.63;2.53;;;12.30;99.90;;;;;;5033986;28;20193;-74
2024/03/29 08:34:47;;;;;;;2.80;2.60;;;12.40;99.90;;;;;;5032509;28;20199;-73
2024/03/29 08:37:12;;;;;;;2.47;2.37;;;12.50;99.90;;;;;;5030046;28;20192;-74
2024/03/29 08:39:38;;;;;;;2.50;2.40;;;12.60;99.90;;;;;;5032618;28;20526;-73
2024/03/29 08:42:05;;;;;;;2.73;2.53;;;12.70;99.90;;;;;;5031901;28;20187;-73
2024/03/29 08:44:32;;;;;;;2.93;2.70;;;12.80;99.90;;;;;;5032303;28;20187;-74
2024/03/29 08:46:59;;;;;;;2.70;2.50;;;13.00;99.90;;;;;;5027236;28;20180;-73
2024/03/29 08:49:24;;;;;;;2.50;2.30;;;13.10;99.90;;;;;;5012721;28;20192;-73
2024/03/29 08:51:50;;;;;;;2.40;2.30;;;13.30;99.90;;;;;;5012962;28;20176;-73
2024/03/29 08:54:16;;;;;;;3.63;2.40;;;13.60;99.90;;;;;;5024142;28;20203;-73
2024/03/29 08:56:41;;;;;;;6.03;2.30;;;13.80;99.90;;;;;;5032132;28;20545;-72
2024/03/29 08:59:09;;;;;;;2.30;2.20;;;14.00;99.90;;;;;;5031338;28;20182;-74
2024/03/29 09:01:37;;;;;;;2.63;2.43;;;14.30;99.90;;;;;;5032257;28;20233;-72
2024/03/29 09:04:06;;;;;;;2.43;2.23;;;14.70;99.90;;;;;;5032169;28;20191;-74
2024/03/29 09:06:32;;;;;;;2.53;2.30;;;14.90;99.90;;;;;;5032878;28;20168;-73
2024/03/29 09:08:58;;;;;;;2.83;2.23;;;15.00;99.90;;;;;;5032272;28;20206;-74
2024/03/29 09:11:23;;;;;;;3.50;2.50;;;15.10;99.90;;;;;;5033209;28;20179;-74
2024/03/29 09:13:49;;;;;;;2.60;2.40;;;15.10;99.90;;;;;;5032704;28;20188;-74
2024/03/29 09:16:14;;;;;;;2.50;2.40;;;15.10;99.90;;;;;;5031962;28;20219;-73
2024/03/29 09:18:40;;;;;;;2.53;2.33;;;15.10;99.90;;;;;;5029231;28;20570;-73
2024/03/29 09:21:07;;;;;;;2.70;2.50;;;15.10;99.90;;;;;;5013147;28;20190;-74
2024/03/29 09:23:33;;;;;;;2.50;2.40;;;15.20;99.90;;;;;;5013142;28;20257;-74
2024/03/29 09:25:59;;;;;;;3.07;2.33;;;15.30;99.90;;;;;;5012737;28;20275;-74
2024/03/29 09:28:25;;;;;;;2.03;1.93;;;15.50;99.90;;;;;;5012679;28;20204;-74
2024/03/29 09:30:57;;;;;;;2.77;2.50;;;15.70;99.90;;;;;;5013132;28;20199;-72
2024/03/29 09:33:22;;;;;;;2.63;2.43;;;15.90;99.90;;;;;;5014661;28;20203;-73
2024/03/29 09:35:48;;;;;;;2.43;2.30;;;16.10;99.90;;;;;;5012593;28;20239;-72
2024/03/29 09:38:13;;;;;;;2.10;1.90;;;16.40;99.90;;;;;;5012396;28;20184;-73
2024/03/29 09:40:39;;;;;;;2.20;2.10;;;16.60;99.90;;;;;;5011816;28;20180;-75
2024/03/29 09:43:06;;;;;;;2.00;1.90;;;16.70;99.90;;;;;;5011663;28;20200;-74
2024/03/29 09:45:36;;;;;;;2.97;2.00;;;16.70;99.90;;;;;;5011710;28;20211;-73
2024/03/29 09:48:04;;;;;;;2.30;2.10;;;16.70;99.90;;;;;;5020152;28;20195;-72
2024/03/29 09:50:31;;;;;;;2.90;1.90;;;16.60;99.90;;;;;;5031190;28;20233;-74
2024/03/29 09:52:58;;;;;;;2.30;2.10;;;16.60;99.90;;;;;;5030881;28;20195;-72
2024/03/29 09:55:24;;;;;;;2.87;2.00;;;16.90;99.90;;;;;;5029742;28;20229;-72
2024/03/29 09:57:50;;;;;;;3.63;1.93;;;17.10;99.90;;;;;;5030809;28;20224;-76
2024/03/29 10:00:18;;;;;;;2.07;1.97;;;17.10;99.90;;;;;;5030264;28;20532;-73
2024/03/29 10:02:43;;;;;;;2.07;1.97;;;17.00;99.90;;;;;;5030899;28;20551;-72
2024/03/29 10:05:12;;;;;;;2.13;2.03;;;17.10;99.90;;;;;;5030688;28;20176;-73
2024/03/29 10:07:39;;;;;;;2.50;2.30;;;17.30;99.90;;;;;;5030588;28;20680;-72
2024/03/29 10:10:05;;;;;;;2.17;2.07;;;17.40;99.90;;;;;;5019593;28;20180;-72
2024/03/29 10:12:30;;;;;;;2.30;2.10;;;17.60;99.90;;;;;;5011007;28;20175;-74
2024/03/29 10:15:05;;;;;;;2.40;2.20;;;17.80;99.90;;;;;;5011251;28;20263;-73
2024/03/29 10:17:31;;;;;;;3.53;1.93;;;17.80;99.90;;;;;;5010795;28;20555;-72
2024/03/29 10:20:01;;;;;;;2.47;2.27;;;17.60;99.90;;;;;;5011262;28;20263;-72
2024/03/29 10:22:27;;;;;;;2.00;1.90;;;17.50;99.90;;;;;;5026061;28;20184;-71
2024/03/29 10:24:52;;;;;;;2.60;2.40;;;17.30;99.90;;;;;;5030899;28;20237;-71
2024/03/29 10:27:18;;;;;;;3.40;2.17;;;17.20;99.90;;;;;;5029191;28;20183;-72
2024/03/29 10:29:44;;;;;;;2.20;2.10;;;17.10;99.90;;;;;;5026309;28;20658;-74
2024/03/29 10:32:09;;;;;;;2.00;1.90;;;17.20;99.90;;;;;;5009574;28;20234;-71
2024/03/29 10:34:36;;;;;;;2.87;2.57;;;17.20;99.90;;;;;;5010878;28;20571;-73
2024/03/29 10:37:04;;;;;;;4.30;3.70;;;17.00;99.90;;;;;;5010839;28;20545;-72
2024/03/29 10:39:34;;;;;;;6.13;4.30;;;16.80;99.90;;;;;;5012479;28;20180;-72
2024/03/29 10:42:00;;;;;;;4.13;3.73;;;16.70;99.90;;;;;;5030580;28;20254;-72
2024/03/29 10:44:27;;;;;;;3.00;2.80;;;16.80;99.90;;;;;;5028788;28;20778;-71
2024/03/29 10:46:56;;;;;;;4.33;3.53;;;16.90;99.90;;;;;;5030722;28;20199;-73
2024/03/29 10:49:23;;;;;;;3.47;3.13;;;17.00;99.90;;;;;;5030628;28;20214;-71
2024/03/29 10:51:51;;;;;;;2.40;2.20;;;17.10;99.90;;;;;;5029509;28;20176;-71
2024/03/29 10:54:17;;;;;;;2.83;2.57;;;17.00;99.90;;;;;;5030282;28;20668;-70
2024/03/29 10:56:51;;;;;;;4.43;2.50;;;17.20;99.90;;;;;;5030301;28;20179;-70
2024/03/29 10:59:44;;;;;;;3.47;2.40;;;17.30;99.90;;;;;;5013661;28;20180;-70
2024/03/29 11:02:26;;;;;;;3.00;2.47;;;17.50;99.90;;;;;;5014484;28;20180;-71
2024/03/29 11:04:52;;;;;;;3.40;2.30;;;17.60;99.90;;;;;;5014451;28;20200;-73
2024/03/29 11:07:22;;;;;;;2.50;2.10;;;17.70;99.90;;;;;;5013903;28;20242;-71
2024/03/29 11:09:52;;;;;;;2.50;2.30;;;17.70;99.90;;;;;;5024028;28;20179;-71
2024/03/29 11:12:19;;;;;;;2.70;2.10;;;17.80;99.90;;;;;;5033836;28;20178;-72
2024/03/29 11:15:01;;;;;;;2.20;2.10;;;18.00;98.70;;;;;;5033986;28;20192;-71
2024/03/29 11:17:30;;;;;;;1.93;1.83;;;18.00;97.60;;;;;;5033669;28;20195;-71
2024/03/29 11:19:57;;;;;;;2.00;1.80;;;18.00;96.50;;;;;;5033814;28;20172;-72
2024/03/29 11:22:23;;;;;;;1.93;1.83;;;18.00;96.00;;;;;;5033653;28;20644;-71
2024/03/29 11:24:51;;;;;;;2.00;1.90;;;17.80;97.90;;;;;;5033551;28;20207;-71
2024/03/29 11:27:19;;;;;;;3.37;2.20;;;17.70;98.60;;;;;;5033563;28;20258;-71
2024/03/29 11:29:45;;;;;;;2.80;2.60;;;17.70;99.90;;;;;;5033680;28;20551;-72
2024/03/29 11:32:11;;;;;;;3.03;2.13;;;17.70;99.90;;;;;;5033493;28;20210;-71
2024/03/29 11:34:44;;;;;;;2.23;2.03;;;17.70;99.90;;;;;;5033534;28;20195;-72
2024/03/29 11:37:15;;;;;;;2.47;2.07;;;17.60;98.90;;;;;;5028340;28;20545;-73
2024/03/29 11:39:47;;;;;;;2.30;2.10;;;17.40;99.40;;;;;;5014374;28;20180;-71
2024/03/29 11:42:13;;;;;;;3.07;2.00;;;17.40;99.90;;;;;;5014002;28;20174;-73
2024/03/29 11:44:39;;;;;;;4.60;1.90;;;17.40;96.90;;;;;;5014395;28;20649;-71
2024/03/29 11:47:07;;;;;;;1.90;1.80;;;17.50;99.90;;;;;;5013445;28;20184;-71
2024/03/29 11:49:33;;;;;;;2.40;1.90;;;17.60;97.20;;;;;;5014035;28;20168;-72
2024/03/29 11:52:04;;;;;;;3.47;1.90;;;17.70;97.40;;;;;;5014061;28;20168;-71
2024/03/29 11:54:37;;;;;;;2.07;1.97;;;17.70;97.00;;;;;;5013728;28;20222;-72
2024/03/29 11:57:02;;;;;;;2.00;1.90;;;17.70;94.90;;;;;;5013418;28;20634;-71
2024/03/29 11:59:29;;;;;;;2.70;2.00;;;17.80;96.60;;;;;;5013544;28;20191;-73
2024/03/29 12:01:55;;;;;;;2.47;2.37;;;18.00;95.20;;;;;;5013909;28;20215;-72
2024/03/29 12:04:21;;;;;;;2.20;2.10;;;18.10;95.90;;;;;;5012942;28;20239;-72
2024/03/29 12:06:47;;;;;;;3.17;2.10;;;18.20;95.50;;;;;;5030514;28;20187;-71
2024/03/29 12:09:13;;;;;;;2.40;2.27;;;18.10;93.40;;;;;;5017571;28;20650;-74
2024/03/29 12:11:38;;;;;;;2.27;2.17;;;17.80;92.10;;;;;;5012813;28;20176;-71
2024/03/29 12:14:12;;;;;;;2.47;2.03;;;17.60;93.90;;;;;;5012647;28;20200;-72
2024/03/29 12:16:47;;;;;;;2.70;2.10;;;17.50;94.00;;;;;;5012586;28;20201;-71
2024/03/29 12:19:25;;;;;;;2.00;1.90;;;17.30;94.00;;;;;;5012780;28;20641;-70
2024/03/29 12:21:51;;;;;;;1.83;1.73;;;17.30;95.10;;;;;;5013256;28;20230;-71
2024/03/29 12:24:17;;;;;;;2.90;2.20;;;17.10;94.70;;;;;;5012719;28;20202;-72
2024/03/29 12:26:42;;;;;;;2.97;2.23;;;17.20;96.70;;;;;;5013414;28;20176;-72
2024/03/29 12:29:08;;;;;;;2.00;1.90;;;17.10;93.00;;;;;;5012814;28;20211;-72
2024/03/29 12:31:34;;;;;;;1.90;1.80;;;17.00;91.90;;;;;;5012872;28;20533;-73
2024/03/29 12:33:59;;;;;;;1.87;1.77;;;17.00;93.80;;;;;;5013232;28;20208;-72
2024/03/29 12:36:26;;;;;;;1.80;1.70;;;17.00;93.40;;;;;;5012305;28;20638;-71
2024/03/29 12:38:57;;;;;;;2.13;1.93;;;16.90;94.30;;;;;;5013347;28;20176;-73
2024/03/29 12:41:24;;;;;;;2.43;2.00;;;16.90;96.20;;;;;;5012694;28;20184;-73
2024/03/29 12:43:51;;;;;;;2.00;1.80;;;16.90;96.70;;;;;;5012426;28;20581;-71
2024/03/29 12:46:18;;;;;;;2.00;1.90;;;16.80;95.80;;;;;;5012011;28;20237;-71
2024/03/29 12:48:43;;;;;;;2.00;1.90;;;16.60;96.20;;;;;;5012504;28;20200;-71
2024/03/29 12:51:09;;;;;;;2.00;1.90;;;16.50;95.30;;;;;;5012439;28;20164;-71
2024/03/29 12:53:38;;;;;;;2.00;1.90;;;16.50;96.60;;;;;;5012467;28;20196;-70
2024/03/29 12:56:04;;;;;;;1.90;1.80;;;16.40;96.60;;;;;;5012342;28;20176;-70